»·PEaware :: N973SE L88-KSBP

N973SE :: L88-KSBP

FLIGHT INFORMATION

Flight Status: Arrived
Operator: Privately registered:
United States
More flights under this callsign
Pilot: Stig E. (4778)
Aircraft: PIPER PA-28R-201 ARROW
(P28R)
More flights by this aircraft type
Origin: L88 New Cuyama
United States
Destination: KSBP San Luis Co Regl
United States
More flights between these airports :: More routes between these airports
Route:
File this flight plan on PilotEdge
Remarks:
Altitude:
(Current/Filed)
6,500ft
Speed:
(Current/Filed)
120kts
Departed: 16-Mar-18 09:42 AM
Arrived: 16-Mar-18 10:28 AM
Distance/Time
Traveled:
50nm/0:46
Distance/Time
To Go:
Arrived

Flight Plot

Page will automatically refresh every two minutes.


Map Options




Map Legend


Flown Route
Filed Route
Departure Airport
Arrival Airport
Navaid (VOR, NDB)
Fix

Horizontal Profiles

Position Reports

Time Latitude Longitude Heading Altitude Ground
Speed
16-Mar-18 09:31 34.942899 -119.690864 287 2153ft 7kts
16-Mar-18 09:32 34.942719 -119.691171 201 2153ft 0kts
16-Mar-18 09:33 34.942524 -119.691263 196 2153ft 2kts
16-Mar-18 09:34 34.941179 -119.688529 115 2161ft 14kts
16-Mar-18 09:35 34.939359 -119.684025 117 2182ft 14kts
16-Mar-18 09:36 34.937765 -119.679903 101 2198ft 0kts
16-Mar-18 09:37 34.937553 -119.679654 293 2199ft 0kts
16-Mar-18 09:38 34.937553 -119.679654 293 2199ft 0kts
16-Mar-18 09:39 34.937553 -119.679654 293 2199ft 0kts
16-Mar-18 09:40 34.937625 -119.679877 291 2199ft 0kts
16-Mar-18 09:41 34.943054 -119.692812 297 2403ft 90kts
16-Mar-18 09:42 34.953488 -119.722566 292 3196ft 97kts
16-Mar-18 09:43 34.963700 -119.752294 292 3943ft 93kts
16-Mar-18 09:44 34.973872 -119.781910 292 4602ft 97kts
16-Mar-18 09:45 34.984482 -119.812817 292 5203ft 99kts
16-Mar-18 09:46 34.995111 -119.843787 292 5803ft 98kts
16-Mar-18 09:47 35.005593 -119.874326 292 6401ft 97kts
16-Mar-18 09:48 35.015974 -119.906076 283 6696ft 119kts
16-Mar-18 09:49 35.023911 -119.948931 282 6483ft 129kts
16-Mar-18 09:50 35.031693 -119.991202 282 6484ft 126kts
16-Mar-18 09:51 35.039415 -120.033104 282 6484ft 126kts
16-Mar-18 09:52 35.047138 -120.074994 282 6484ft 126kts
16-Mar-18 09:53 35.054872 -120.116919 282 6484ft 126kts
16-Mar-18 09:54 35.060769 -120.159194 272 6453ft 129kts
16-Mar-18 09:55 35.062569 -120.205435 272 6006ft 139kts
16-Mar-18 09:56 35.064412 -120.252779 272 5555ft 139kts
16-Mar-18 09:57 35.066254 -120.299935 272 5106ft 139kts
16-Mar-18 09:58 35.068288 -120.346808 281 4606ft 131kts
16-Mar-18 09:59 35.082553 -120.383081 296 3997ft 109kts
16-Mar-18 10:00 35.097284 -120.414520 304 3395ft 106kts
16-Mar-18 10:01 35.113844 -120.443934 304 2794ft 102kts
16-Mar-18 10:02 35.129552 -120.471866 304 2192ft 98kts
16-Mar-18 10:03 35.145058 -120.499428 304 1592ft 98kts
16-Mar-18 10:04 35.155565 -120.527719 230 1076ft 90kts
16-Mar-18 10:05 35.133823 -120.535418 200 1204ft 80kts
16-Mar-18 10:06 35.114158 -120.549330 217 1399ft 84kts
16-Mar-18 10:07 35.099378 -120.562705 212 1564ft 84kts
16-Mar-18 10:08 35.077760 -120.582908 226 1788ft 84kts
16-Mar-18 10:09 35.085007 -120.591640 61 1783ft 93kts
16-Mar-18 10:10 35.078919 -120.559696 169 1622ft 105kts
16-Mar-18 10:11 35.050575 -120.557607 179 1597ft 101kts
16-Mar-18 10:12 35.027320 -120.557587 175 1580ft 100kts
16-Mar-18 10:13 35.013072 -120.537518 63 1538ft 99kts
16-Mar-18 10:14 35.034039 -120.536925 286 1325ft 101kts
16-Mar-18 10:15 35.039496 -120.569530 278 1194ft 93kts
16-Mar-18 10:16 35.045118 -120.600105 310 1156ft 90kts
16-Mar-18 10:17 35.067607 -120.609666 355 1243ft 86kts
16-Mar-18 10:18 35.091226 -120.614676 338 1337ft 87kts
16-Mar-18 10:19 35.109781 -120.632401 302 1430ft 87kts
16-Mar-18 10:20 35.130009 -120.633362 34 1492ft 87kts
16-Mar-18 10:21 35.149336 -120.615662 36 1588ft 87kts
16-Mar-18 10:22 35.167223 -120.596103 51 1629ft 86kts
16-Mar-18 10:23 35.182498 -120.573267 45 1501ft 86kts
16-Mar-18 10:24 35.203245 -120.579592 302 1103ft 90kts
16-Mar-18 10:25 35.215971 -120.603201 303 765ft 77kts
16-Mar-18 10:26 35.228231 -120.624656 304 454ft 77kts
16-Mar-18 10:27 35.238667 -120.643098 304 179ft 16kts
16-Mar-18 10:28 35.239839 -120.643947 50 174ft 0kts
16-Mar-18 10:29 35.239762 -120.643166 124 177ft 11kts
16-Mar-18 10:30 35.238114 -120.639726 105 190ft 8kts
16-Mar-18 10:31 35.237670 -120.637918 74 197ft 5kts
16-Mar-18 10:32 35.238093 -120.637842 269 197ft 0kts

Navigation Log

Ident Type
Flight plan parsing failed, navigation log unavailable